sensor_id;sensor_type;location;lat;lon;timestamp;temperature;humidity
20658;DHT22;10488;50.846;4.078;2022-07-06T00:01:15;12.70;99.90
20658;DHT22;10488;50.846;4.078;2022-07-06T00:03:42;12.90;99.90
20658;DHT22;10488;50.846;4.078;2022-07-06T00:06:07;12.80;99.90
20658;DHT22;10488;50.846;4.078;2022-07-06T00:08:33;12.60;99.90
20658;DHT22;10488;50.846;4.078;2022-07-06T00:10:59;12.40;99.90
20658;DHT22;10488;50.846;4.078;2022-07-06T00:13:25;12.50;99.90
20658;DHT22;10488;50.846;4.078;2022-07-06T00:15:51;12.70;99.90
20658;DHT22;10488;50.846;4.078;2022-07-06T00:18:16;12.80;99.90
20658;DHT22;10488;50.846;4.078;2022-07-06T00:20:42;12.80;99.90
20658;DHT22;10488;50.846;4.078;2022-07-06T00:23:08;12.80;99.90
20658;DHT22;10488;50.846;4.078;2022-07-06T00:25:34;12.70;99.90
20658;DHT22;10488;50.846;4.078;2022-07-06T00:28:00;12.50;99.90
20658;DHT22;10488;50.846;4.078;2022-07-06T00:30:26;12.40;99.90
20658;DHT22;10488;50.846;4.078;2022-07-06T00:32:52;12.40;99.90
20658;DHT22;10488;50.846;4.078;2022-07-06T00:35:18;12.30;99.90
20658;DHT22;10488;50.846;4.078;2022-07-06T00:37:43;12.30;99.90
20658;DHT22;10488;50.846;4.078;2022-07-06T00:40:09;12.40;99.90
20658;DHT22;10488;50.846;4.078;2022-07-06T00:42:45;12.50;99.90
20658;DHT22;10488;50.846;4.078;2022-07-06T00:45:13;12.50;99.90
20658;DHT22;10488;50.846;4.078;2022-07-06T00:47:40;12.40;99.90
20658;DHT22;10488;50.846;4.078;2022-07-06T00:50:08;12.20;99.90
20658;DHT22;10488;50.846;4.078;2022-07-06T00:52:54;12.30;99.90
20658;DHT22;10488;50.846;4.078;2022-07-06T00:55:23;12.30;99.90
20658;DHT22;10488;50.846;4.078;2022-07-06T00:57:49;12.50;99.90
20658;DHT22;10488;50.846;4.078;2022-07-06T01:00:18;12.50;99.90
20658;DHT22;10488;50.846;4.078;2022-07-06T01:02:44;12.60;99.90
20658;DHT22;10488;50.846;4.078;2022-07-06T01:05:12;12.60;99.90
20658;DHT22;10488;50.846;4.078;2022-07-06T01:07:40;12.50;99.90
20658;DHT22;10488;50.846;4.078;2022-07-06T01:10:07;12.20;99.90
20658;DHT22;10488;50.846;4.078;2022-07-06T01:12:38;12.40;99.90
20658;DHT22;10488;50.846;4.078;2022-07-06T01:15:06;12.60;99.90
20658;DHT22;10488;50.846;4.078;2022-07-06T01:17:33;12.70;99.90
20658;DHT22;10488;50.846;4.078;2022-07-06T01:20:11;12.70;99.90
20658;DHT22;10488;50.846;4.078;2022-07-06T01:22:38;12.70;99.90
20658;DHT22;10488;50.846;4.078;2022-07-06T01:25:05;12.60;99.90
20658;DHT22;10488;50.846;4.078;2022-07-06T01:27:30;12.50;99.90
20658;DHT22;10488;50.846;4.078;2022-07-06T01:29:56;12.70;99.90
20658;DHT22;10488;50.846;4.078;2022-07-06T01:32:22;12.80;99.90
20658;DHT22;10488;50.846;4.078;2022-07-06T01:34:47;12.80;99.90
20658;DHT22;10488;50.846;4.078;2022-07-06T01:37:13;12.90;99.90
20658;DHT22;10488;50.846;4.078;2022-07-06T01:39:39;12.60;99.90
20658;DHT22;10488;50.846;4.078;2022-07-06T01:42:05;12.50;99.90
20658;DHT22;10488;50.846;4.078;2022-07-06T01:44:31;12.70;99.90
20658;DHT22;10488;50.846;4.078;2022-07-06T01:46:57;12.70;99.90
20658;DHT22;10488;50.846;4.078;2022-07-06T01:49:22;12.70;99.90
20658;DHT22;10488;50.846;4.078;2022-07-06T01:51:48;12.70;99.90
20658;DHT22;10488;50.846;4.078;2022-07-06T01:54:14;12.70;99.90
20658;DHT22;10488;50.846;4.078;2022-07-06T01:56:39;12.60;99.90
20658;DHT22;10488;50.846;4.078;2022-07-06T01:59:05;12.50;99.90
20658;DHT22;10488;50.846;4.078;2022-07-06T02:01:31;12.60;99.90
20658;DHT22;10488;50.846;4.078;2022-07-06T02:03:56;12.70;99.90
20658;DHT22;10488;50.846;4.078;2022-07-06T02:06:22;12.60;99.90
20658;DHT22;10488;50.846;4.078;2022-07-06T02:08:47;12.60;99.90
20658;DHT22;10488;50.846;4.078;2022-07-06T02:11:13;12.60;99.90
20658;DHT22;10488;50.846;4.078;2022-07-06T02:13:39;12.60;99.90
20658;DHT22;10488;50.846;4.078;2022-07-06T02:16:05;12.60;99.90
20658;DHT22;10488;50.846;4.078;2022-07-06T02:18:31;12.60;99.90
20658;DHT22;10488;50.846;4.078;2022-07-06T02:20:57;12.50;99.90
20658;DHT22;10488;50.846;4.078;2022-07-06T02:23:23;12.50;99.90
20658;DHT22;10488;50.846;4.078;2022-07-06T02:25:48;12.40;99.90
20658;DHT22;10488;50.846;4.078;2022-07-06T02:28:14;12.40;99.90
20658;DHT22;10488;50.846;4.078;2022-07-06T02:30:40;12.40;99.90
20658;DHT22;10488;50.846;4.078;2022-07-06T02:33:05;12.50;99.90
20658;DHT22;10488;50.846;4.078;2022-07-06T02:35:31;12.40;99.90
20658;DHT22;10488;50.846;4.078;2022-07-06T02:37:57;12.40;99.90
20658;DHT22;10488;50.846;4.078;2022-07-06T02:40:22;12.40;99.90
20658;DHT22;10488;50.846;4.078;2022-07-06T02:42:48;12.30;99.90
20658;DHT22;10488;50.846;4.078;2022-07-06T02:45:14;12.00;99.90
20658;DHT22;10488;50.846;4.078;2022-07-06T02:47:39;11.90;99.90
20658;DHT22;10488;50.846;4.078;2022-07-06T02:50:05;12.00;99.90
20658;DHT22;10488;50.846;4.078;2022-07-06T02:52:31;12.10;99.90
20658;DHT22;10488;50.846;4.078;2022-07-06T02:54:57;12.20;99.90
20658;DHT22;10488;50.846;4.078;2022-07-06T02:57:22;12.20;99.90
20658;DHT22;10488;50.846;4.078;2022-07-06T02:59:48;12.00;99.90
20658;DHT22;10488;50.846;4.078;2022-07-06T03:02:16;11.80;99.90
20658;DHT22;10488;50.846;4.078;2022-07-06T03:04:42;11.90;99.90
20658;DHT22;10488;50.846;4.078;2022-07-06T03:07:07;12.00;99.90
20658;DHT22;10488;50.846;4.078;2022-07-06T03:09:33;12.00;99.90
20658;DHT22;10488;50.846;4.078;2022-07-06T03:11:59;12.10;99.90
20658;DHT22;10488;50.846;4.078;2022-07-06T03:14:25;12.10;99.90
20658;DHT22;10488;50.846;4.078;2022-07-06T03:16:51;12.10;99.90
20658;DHT22;10488;50.846;4.078;2022-07-06T03:19:17;12.10;99.90
20658;DHT22;10488;50.846;4.078;2022-07-06T03:21:43;12.10;99.90
20658;DHT22;10488;50.846;4.078;2022-07-06T03:24:09;12.10;99.90
20658;DHT22;10488;50.846;4.078;2022-07-06T03:26:35;12.10;99.90
20658;DHT22;10488;50.846;4.078;2022-07-06T03:29:01;12.10;99.90
20658;DHT22;10488;50.846;4.078;2022-07-06T03:31:26;12.10;99.90
20658;DHT22;10488;50.846;4.078;2022-07-06T03:33:52;12.10;99.90
20658;DHT22;10488;50.846;4.078;2022-07-06T03:36:18;12.10;99.90
20658;DHT22;10488;50.846;4.078;2022-07-06T03:38:43;12.00;99.90
20658;DHT22;10488;50.846;4.078;2022-07-06T03:41:09;12.00;99.90
20658;DHT22;10488;50.846;4.078;2022-07-06T03:43:35;11.70;99.90
20658;DHT22;10488;50.846;4.078;2022-07-06T03:46:00;11.50;99.90
20658;DHT22;10488;50.846;4.078;2022-07-06T03:48:26;11.60;99.90
20658;DHT22;10488;50.846;4.078;2022-07-06T03:50:52;11.70;99.90
20658;DHT22;10488;50.846;4.078;2022-07-06T03:53:18;11.80;99.90
20658;DHT22;10488;50.846;4.078;2022-07-06T03:55:44;11.80;99.90
20658;DHT22;10488;50.846;4.078;2022-07-06T03:58:29;11.60;99.90
20658;DHT22;10488;50.846;4.078;2022-07-06T04:00:55;11.80;99.90
20658;DHT22;10488;50.846;4.078;2022-07-06T04:03:21;11.90;99.90
20658;DHT22;10488;50.846;4.078;2022-07-06T04:05:46;11.90;99.90
20658;DHT22;10488;50.846;4.078;2022-07-06T04:08:12;11.90;99.90
20658;DHT22;10488;50.846;4.078;2022-07-06T04:10:37;12.00;99.90
20658;DHT22;10488;50.846;4.078;2022-07-06T04:13:03;12.00;99.90
20658;DHT22;10488;50.846;4.078;2022-07-06T04:15:29;12.20;99.90
20658;DHT22;10488;50.846;4.078;2022-07-06T04:17:54;12.20;99.90
20658;DHT22;10488;50.846;4.078;2022-07-06T04:20:22;12.30;99.90
20658;DHT22;10488;50.846;4.078;2022-07-06T04:22:49;12.40;99.90
20658;DHT22;10488;50.846;4.078;2022-07-06T04:25:15;12.40;99.90
20658;DHT22;10488;50.846;4.078;2022-07-06T04:27:41;12.50;99.90
20658;DHT22;10488;50.846;4.078;2022-07-06T04:30:08;12.70;99.90
20658;DHT22;10488;50.846;4.078;2022-07-06T04:32:35;12.70;99.90
20658;DHT22;10488;50.846;4.078;2022-07-06T04:35:01;12.50;99.90
20658;DHT22;10488;50.846;4.078;2022-07-06T04:37:26;12.50;99.90
20658;DHT22;10488;50.846;4.078;2022-07-06T04:39:52;12.70;99.90
20658;DHT22;10488;50.846;4.078;2022-07-06T04:42:18;12.90;99.90
20658;DHT22;10488;50.846;4.078;2022-07-06T04:44:44;13.10;99.90
20658;DHT22;10488;50.846;4.078;2022-07-06T04:47:11;13.20;99.90
20658;DHT22;10488;50.846;4.078;2022-07-06T04:49:37;13.00;99.90
20658;DHT22;10488;50.846;4.078;2022-07-06T04:52:03;12.90;99.90
20658;DHT22;10488;50.846;4.078;2022-07-06T04:54:29;12.90;99.90
20658;DHT22;10488;50.846;4.078;2022-07-06T04:56:55;13.00;99.90
20658;DHT22;10488;50.846;4.078;2022-07-06T04:59:20;13.10;99.90
20658;DHT22;10488;50.846;4.078;2022-07-06T05:01:46;13.10;99.90
20658;DHT22;10488;50.846;4.078;2022-07-06T05:04:12;13.20;99.90
20658;DHT22;10488;50.846;4.078;2022-07-06T05:06:39;13.00;99.90
20658;DHT22;10488;50.846;4.078;2022-07-06T05:09:05;13.00;99.90
20658;DHT22;10488;50.846;4.078;2022-07-06T05:11:31;12.90;99.90
20658;DHT22;10488;50.846;4.078;2022-07-06T05:13:57;12.70;99.90
20658;DHT22;10488;50.846;4.078;2022-07-06T05:16:23;12.70;99.90
20658;DHT22;10488;50.846;4.078;2022-07-06T05:18:49;12.70;99.90
20658;DHT22;10488;50.846;4.078;2022-07-06T05:21:14;12.80;99.90
20658;DHT22;10488;50.846;4.078;2022-07-06T05:23:40;12.90;99.90
20658;DHT22;10488;50.846;4.078;2022-07-06T05:26:06;12.90;99.90
20658;DHT22;10488;50.846;4.078;2022-07-06T05:28:32;12.90;99.90
20658;DHT22;10488;50.846;4.078;2022-07-06T05:30:58;12.90;99.90
20658;DHT22;10488;50.846;4.078;2022-07-06T05:33:24;13.10;99.90
20658;DHT22;10488;50.846;4.078;2022-07-06T05:35:50;13.40;99.90
20658;DHT22;10488;50.846;4.078;2022-07-06T05:38:15;13.70;99.90
20658;DHT22;10488;50.846;4.078;2022-07-06T05:40:41;13.90;99.90
20658;DHT22;10488;50.846;4.078;2022-07-06T05:43:07;14.40;99.90
20658;DHT22;10488;50.846;4.078;2022-07-06T05:45:32;15.10;99.90
20658;DHT22;10488;50.846;4.078;2022-07-06T05:47:58;16.00;99.90
20658;DHT22;10488;50.846;4.078;2022-07-06T05:50:42;16.50;99.90
20658;DHT22;10488;50.846;4.078;2022-07-06T05:53:08;16.70;99.90
20658;DHT22;10488;50.846;4.078;2022-07-06T05:55:35;16.30;99.90
20658;DHT22;10488;50.846;4.078;2022-07-06T05:58:00;16.40;99.90
20658;DHT22;10488;50.846;4.078;2022-07-06T06:00:27;16.90;99.90
20658;DHT22;10488;50.846;4.078;2022-07-06T06:02:53;16.80;99.90
20658;DHT22;10488;50.846;4.078;2022-07-06T06:05:20;16.70;99.90
20658;DHT22;10488;50.846;4.078;2022-07-06T06:07:46;16.60;99.90
20658;DHT22;10488;50.846;4.078;2022-07-06T06:10:14;16.90;99.90
20658;DHT22;10488;50.846;4.078;2022-07-06T06:12:40;17.10;99.90
20658;DHT22;10488;50.846;4.078;2022-07-06T06:15:07;17.60;99.90
20658;DHT22;10488;50.846;4.078;2022-07-06T06:17:33;18.30;99.90
20658;DHT22;10488;50.846;4.078;2022-07-06T06:19:59;18.60;99.90
20658;DHT22;10488;50.846;4.078;2022-07-06T06:22:25;18.30;99.90
20658;DHT22;10488;50.846;4.078;2022-07-06T06:24:51;18.00;99.90
20658;DHT22;10488;50.846;4.078;2022-07-06T06:27:17;17.70;99.90
20658;DHT22;10488;50.846;4.078;2022-07-06T06:29:43;17.90;99.90
20658;DHT22;10488;50.846;4.078;2022-07-06T06:32:10;18.70;99.90
20658;DHT22;10488;50.846;4.078;2022-07-06T06:34:37;18.70;99.90
20658;DHT22;10488;50.846;4.078;2022-07-06T06:37:03;19.40;99.90
20658;DHT22;10488;50.846;4.078;2022-07-06T06:39:28;19.10;99.90
20658;DHT22;10488;50.846;4.078;2022-07-06T06:41:54;18.60;99.90
20658;DHT22;10488;50.846;4.078;2022-07-06T06:44:20;18.70;99.90
20658;DHT22;10488;50.846;4.078;2022-07-06T06:46:49;19.50;99.90
20658;DHT22;10488;50.846;4.078;2022-07-06T06:49:15;20.40;99.90
20658;DHT22;10488;50.846;4.078;2022-07-06T06:51:41;20.60;99.90
20658;DHT22;10488;50.846;4.078;2022-07-06T06:54:07;20.60;99.90
20658;DHT22;10488;50.846;4.078;2022-07-06T06:56:33;20.40;99.90
20658;DHT22;10488;50.846;4.078;2022-07-06T06:58:58;20.50;99.90
20658;DHT22;10488;50.846;4.078;2022-07-06T07:01:24;20.90;99.90
20658;DHT22;10488;50.846;4.078;2022-07-06T07:03:54;21.70;99.90
20658;DHT22;10488;50.846;4.078;2022-07-06T07:06:23;21.90;99.90
20658;DHT22;10488;50.846;4.078;2022-07-06T07:08:49;20.80;99.90
20658;DHT22;10488;50.846;4.078;2022-07-06T07:11:14;20.60;99.90
20658;DHT22;10488;50.846;4.078;2022-07-06T07:13:40;19.20;99.90
20658;DHT22;10488;50.846;4.078;2022-07-06T07:16:06;19.80;99.90
20658;DHT22;10488;50.846;4.078;2022-07-06T07:18:32;20.30;99.90
20658;DHT22;10488;50.846;4.078;2022-07-06T07:20:58;20.00;99.90
20658;DHT22;10488;50.846;4.078;2022-07-06T07:23:23;19.00;99.90
20658;DHT22;10488;50.846;4.078;2022-07-06T07:25:49;20.40;99.90
20658;DHT22;10488;50.846;4.078;2022-07-06T07:28:15;21.40;99.90
20658;DHT22;10488;50.846;4.078;2022-07-06T07:30:40;22.40;99.90
20658;DHT22;10488;50.846;4.078;2022-07-06T07:33:06;22.40;99.90
20658;DHT22;10488;50.846;4.078;2022-07-06T07:35:32;22.40;99.90
20658;DHT22;10488;50.846;4.078;2022-07-06T07:37:58;22.80;99.90
20658;DHT22;10488;50.846;4.078;2022-07-06T07:40:24;23.60;99.90
20658;DHT22;10488;50.846;4.078;2022-07-06T07:42:49;23.90;99.90
20658;DHT22;10488;50.846;4.078;2022-07-06T07:45:15;23.80;99.90
20658;DHT22;10488;50.846;4.078;2022-07-06T07:47:41;23.20;99.90
20658;DHT22;10488;50.846;4.078;2022-07-06T07:50:07;22.70;99.90
20658;DHT22;10488;50.846;4.078;2022-07-06T07:52:33;22.10;99.90
20658;DHT22;10488;50.846;4.078;2022-07-06T07:54:59;21.90;99.90
20658;DHT22;10488;50.846;4.078;2022-07-06T07:57:25;22.10;99.90
20658;DHT22;10488;50.846;4.078;2022-07-06T07:59:50;21.20;99.90
20658;DHT22;10488;50.846;4.078;2022-07-06T08:02:16;21.00;99.90
20658;DHT22;10488;50.846;4.078;2022-07-06T08:04:42;22.10;99.90
20658;DHT22;10488;50.846;4.078;2022-07-06T08:07:07;21.70;99.90
20658;DHT22;10488;50.846;4.078;2022-07-06T08:09:34;22.00;99.90
20658;DHT22;10488;50.846;4.078;2022-07-06T08:12:00;22.20;99.90
20658;DHT22;10488;50.846;4.078;2022-07-06T08:14:26;21.90;99.90
20658;DHT22;10488;50.846;4.078;2022-07-06T08:16:52;22.00;99.90
20658;DHT22;10488;50.846;4.078;2022-07-06T08:19:17;23.00;99.90
20658;DHT22;10488;50.846;4.078;2022-07-06T08:21:43;23.00;99.90
20658;DHT22;10488;50.846;4.078;2022-07-06T08:24:10;24.00;99.90
20658;DHT22;10488;50.846;4.078;2022-07-06T08:26:36;24.60;99.90
20658;DHT22;10488;50.846;4.078;2022-07-06T08:29:01;23.50;99.90
20658;DHT22;10488;50.846;4.078;2022-07-06T08:31:27;23.70;99.90
20658;DHT22;10488;50.846;4.078;2022-07-06T08:33:54;23.60;99.90
20658;DHT22;10488;50.846;4.078;2022-07-06T08:36:21;23.90;99.90
20658;DHT22;10488;50.846;4.078;2022-07-06T08:38:47;22.40;99.90
20658;DHT22;10488;50.846;4.078;2022-07-06T08:41:14;21.90;99.90
20658;DHT22;10488;50.846;4.078;2022-07-06T08:43:40;21.90;99.90
20658;DHT22;10488;50.846;4.078;2022-07-06T08:46:07;21.70;99.90
20658;DHT22;10488;50.846;4.078;2022-07-06T08:48:37;22.90;99.90
20658;DHT22;10488;50.846;4.078;2022-07-06T08:51:06;23.00;99.90
20658;DHT22;10488;50.846;4.078;2022-07-06T08:53:33;23.10;99.90
20658;DHT22;10488;50.846;4.078;2022-07-06T08:55:59;22.80;99.90
20658;DHT22;10488;50.846;4.078;2022-07-06T08:58:27;22.00;99.90
20658;DHT22;10488;50.846;4.078;2022-07-06T09:00:55;23.40;99.90
20658;DHT22;10488;50.846;4.078;2022-07-06T09:03:20;24.30;99.90
20658;DHT22;10488;50.846;4.078;2022-07-06T09:05:47;25.10;99.90
20658;DHT22;10488;50.846;4.078;2022-07-06T09:08:13;23.90;99.90
20658;DHT22;10488;50.846;4.078;2022-07-06T09:10:39;23.50;99.90
20658;DHT22;10488;50.846;4.078;2022-07-06T09:13:07;22.80;99.90
20658;DHT22;10488;50.846;4.078;2022-07-06T09:15:34;23.30;99.90
20658;DHT22;10488;50.846;4.078;2022-07-06T09:18:02;23.80;99.90
20658;DHT22;10488;50.846;4.078;2022-07-06T09:20:29;23.60;99.90
20658;DHT22;10488;50.846;4.078;2022-07-06T09:23:02;23.10;99.90
20658;DHT22;10488;50.846;4.078;2022-07-06T09:25:28;22.50;99.90
20658;DHT22;10488;50.846;4.078;2022-07-06T09:27:54;21.30;99.90
20658;DHT22;10488;50.846;4.078;2022-07-06T09:30:21;21.40;99.90
20658;DHT22;10488;50.846;4.078;2022-07-06T09:32:52;21.30;99.90
20658;DHT22;10488;50.846;4.078;2022-07-06T09:35:31;21.50;99.90
20658;DHT22;10488;50.846;4.078;2022-07-06T09:40:54;21.20;99.90
20658;DHT22;10488;50.846;4.078;2022-07-06T09:43:21;20.80;99.90
20658;DHT22;10488;50.846;4.078;2022-07-06T09:45:52;21.50;99.90
20658;DHT22;10488;50.846;4.078;2022-07-06T09:48:24;21.90;99.90
20658;DHT22;10488;50.846;4.078;2022-07-06T09:50:54;22.60;99.90
20658;DHT22;10488;50.846;4.078;2022-07-06T09:53:22;22.90;99.90
20658;DHT22;10488;50.846;4.078;2022-07-06T09:55:51;23.30;99.90
20658;DHT22;10488;50.846;4.078;2022-07-06T09:58:18;23.60;99.90
20658;DHT22;10488;50.846;4.078;2022-07-06T10:00:47;23.50;99.90
20658;DHT22;10488;50.846;4.078;2022-07-06T10:03:14;23.70;99.90
20658;DHT22;10488;50.846;4.078;2022-07-06T10:05:42;23.70;99.90
20658;DHT22;10488;50.846;4.078;2022-07-06T10:08:09;24.10;99.90
20658;DHT22;10488;50.846;4.078;2022-07-06T10:10:37;24.60;99.90
20658;DHT22;10488;50.846;4.078;2022-07-06T10:13:04;23.30;99.90
20658;DHT22;10488;50.846;4.078;2022-07-06T10:15:33;23.40;99.90
20658;DHT22;10488;50.846;4.078;2022-07-06T10:18:00;23.20;99.90
20658;DHT22;10488;50.846;4.078;2022-07-06T10:20:31;22.80;99.90
20658;DHT22;10488;50.846;4.078;2022-07-06T10:23:00;23.10;99.90
20658;DHT22;10488;50.846;4.078;2022-07-06T10:25:27;23.70;99.90
20658;DHT22;10488;50.846;4.078;2022-07-06T10:27:53;23.30;99.90
20658;DHT22;10488;50.846;4.078;2022-07-06T10:30:20;22.60;99.90
20658;DHT22;10488;50.846;4.078;2022-07-06T10:32:48;22.60;99.90
20658;DHT22;10488;50.846;4.078;2022-07-06T10:35:15;22.90;99.90
20658;DHT22;10488;50.846;4.078;2022-07-06T10:37:41;22.10;99.90
20658;DHT22;10488;50.846;4.078;2022-07-06T10:40:08;22.50;99.90
20658;DHT22;10488;50.846;4.078;2022-07-06T10:43:02;21.80;99.90
20658;DHT22;10488;50.846;4.078;2022-07-06T10:53:10;21.70;99.90
20658;DHT22;10488;50.846;4.078;2022-07-06T10:55:40;21.50;99.90
20658;DHT22;10488;50.846;4.078;2022-07-06T10:58:06;22.00;99.90
20658;DHT22;10488;50.846;4.078;2022-07-06T11:00:51;22.10;99.90
20658;DHT22;10488;50.846;4.078;2022-07-06T11:06:15;22.90;99.90
20658;DHT22;10488;50.846;4.078;2022-07-06T11:24:29;24.70;99.90
20658;DHT22;10488;50.846;4.078;2022-07-06T11:26:57;25.00;99.90
20658;DHT22;10488;50.846;4.078;2022-07-06T11:29:24;24.80;99.90
20658;DHT22;10488;50.846;4.078;2022-07-06T11:31:54;24.50;99.90
20658;DHT22;10488;50.846;4.078;2022-07-06T11:34:28;24.50;99.90
20658;DHT22;10488;50.846;4.078;2022-07-06T11:36:56;24.30;99.90
20658;DHT22;10488;50.846;4.078;2022-07-06T11:39:25;24.30;99.90
20658;DHT22;10488;50.846;4.078;2022-07-06T11:41:51;24.40;99.90
20658;DHT22;10488;50.846;4.078;2022-07-06T11:44:17;24.50;99.90
20658;DHT22;10488;50.846;4.078;2022-07-06T11:46:43;24.70;99.90
20658;DHT22;10488;50.846;4.078;2022-07-06T11:49:09;24.90;99.90
20658;DHT22;10488;50.846;4.078;2022-07-06T11:51:39;24.60;99.90
20658;DHT22;10488;50.846;4.078;2022-07-06T11:54:19;24.20;99.90
20658;DHT22;10488;50.846;4.078;2022-07-06T11:56:56;24.40;99.90
20658;DHT22;10488;50.846;4.078;2022-07-06T11:59:35;24.60;99.90
20658;DHT22;10488;50.846;4.078;2022-07-06T12:02:19;24.40;99.90
20658;DHT22;10488;50.846;4.078;2022-07-06T12:04:46;24.20;99.90
20658;DHT22;10488;50.846;4.078;2022-07-06T12:07:14;24.20;99.90
20658;DHT22;10488;50.846;4.078;2022-07-06T12:09:42;24.60;99.90
20658;DHT22;10488;50.846;4.078;2022-07-06T12:12:09;24.00;99.90
20658;DHT22;10488;50.846;4.078;2022-07-06T12:14:36;23.90;99.90
20658;DHT22;10488;50.846;4.078;2022-07-06T12:17:07;24.10;99.90
20658;DHT22;10488;50.846;4.078;2022-07-06T12:19:33;24.20;99.90
20658;DHT22;10488;50.846;4.078;2022-07-06T12:21:59;23.80;99.90
20658;DHT22;10488;50.846;4.078;2022-07-06T12:24:28;22.90;99.90
20658;DHT22;10488;50.846;4.078;2022-07-06T12:26:56;23.00;99.90
20658;DHT22;10488;50.846;4.078;2022-07-06T12:29:22;22.90;99.90
20658;DHT22;10488;50.846;4.078;2022-07-06T12:31:54;23.00;99.90
20658;DHT22;10488;50.846;4.078;2022-07-06T12:34:25;22.70;99.90
20658;DHT22;10488;50.846;4.078;2022-07-06T12:36:52;22.70;99.90
20658;DHT22;10488;50.846;4.078;2022-07-06T12:39:24;23.10;99.90
20658;DHT22;10488;50.846;4.078;2022-07-06T12:41:51;23.70;99.90
20658;DHT22;10488;50.846;4.078;2022-07-06T12:44:22;24.00;99.90
20658;DHT22;10488;50.846;4.078;2022-07-06T12:46:50;24.70;99.90
20658;DHT22;10488;50.846;4.078;2022-07-06T12:49:23;25.00;99.90
20658;DHT22;10488;50.846;4.078;2022-07-06T12:51:49;24.90;99.90
20658;DHT22;10488;50.846;4.078;2022-07-06T12:54:16;24.60;99.90
20658;DHT22;10488;50.846;4.078;2022-07-06T12:57:02;24.30;99.90
20658;DHT22;10488;50.846;4.078;2022-07-06T12:59:30;23.20;99.90
20658;DHT22;10488;50.846;4.078;2022-07-06T13:01:57;23.40;99.90
20658;DHT22;10488;50.846;4.078;2022-07-06T13:04:29;23.60;99.90
20658;DHT22;10488;50.846;4.078;2022-07-06T13:06:55;24.00;99.90
20658;DHT22;10488;50.846;4.078;2022-07-06T13:09:21;24.20;99.90
20658;DHT22;10488;50.846;4.078;2022-07-06T13:11:48;24.60;99.90
20658;DHT22;10488;50.846;4.078;2022-07-06T13:14:15;23.80;99.90
20658;DHT22;10488;50.846;4.078;2022-07-06T13:16:42;23.60;99.90
20658;DHT22;10488;50.846;4.078;2022-07-06T13:19:08;23.50;99.90
20658;DHT22;10488;50.846;4.078;2022-07-06T13:21:35;23.00;99.90
20658;DHT22;10488;50.846;4.078;2022-07-06T13:24:01;23.30;99.90
20658;DHT22;10488;50.846;4.078;2022-07-06T13:26:27;23.40;99.90
20658;DHT22;10488;50.846;4.078;2022-07-06T13:28:53;24.10;99.90
20658;DHT22;10488;50.846;4.078;2022-07-06T13:31:18;24.40;99.90
20658;DHT22;10488;50.846;4.078;2022-07-06T13:33:44;23.80;99.90
20658;DHT22;10488;50.846;4.078;2022-07-06T13:36:10;23.30;99.90
20658;DHT22;10488;50.846;4.078;2022-07-06T13:38:35;23.50;99.90
20658;DHT22;10488;50.846;4.078;2022-07-06T13:41:01;23.60;99.90
20658;DHT22;10488;50.846;4.078;2022-07-06T13:43:27;23.60;99.90
20658;DHT22;10488;50.846;4.078;2022-07-06T13:46:02;24.10;99.90
20658;DHT22;10488;50.846;4.078;2022-07-06T13:48:28;24.20;99.90
20658;DHT22;10488;50.846;4.078;2022-07-06T13:50:54;24.20;99.90
20658;DHT22;10488;50.846;4.078;2022-07-06T13:53:19;24.40;99.90
20658;DHT22;10488;50.846;4.078;2022-07-06T13:55:45;24.70;99.90
20658;DHT22;10488;50.846;4.078;2022-07-06T13:58:11;24.50;99.90
20658;DHT22;10488;50.846;4.078;2022-07-06T14:00:37;24.40;99.90
20658;DHT22;10488;50.846;4.078;2022-07-06T14:03:02;24.90;99.90
20658;DHT22;10488;50.846;4.078;2022-07-06T14:05:29;24.80;99.90
20658;DHT22;10488;50.846;4.078;2022-07-06T14:07:55;25.20;99.90
20658;DHT22;10488;50.846;4.078;2022-07-06T14:10:21;25.40;99.90
20658;DHT22;10488;50.846;4.078;2022-07-06T14:12:46;24.90;99.90
20658;DHT22;10488;50.846;4.078;2022-07-06T14:15:12;25.40;99.90
20658;DHT22;10488;50.846;4.078;2022-07-06T14:17:38;25.70;99.90
20658;DHT22;10488;50.846;4.078;2022-07-06T14:20:04;25.60;99.90
20658;DHT22;10488;50.846;4.078;2022-07-06T14:22:30;25.80;99.90
20658;DHT22;10488;50.846;4.078;2022-07-06T14:24:56;25.80;99.90
20658;DHT22;10488;50.846;4.078;2022-07-06T14:27:21;25.80;99.90
20658;DHT22;10488;50.846;4.078;2022-07-06T14:29:47;25.80;99.90
20658;DHT22;10488;50.846;4.078;2022-07-06T14:32:13;25.50;99.90
20658;DHT22;10488;50.846;4.078;2022-07-06T14:34:38;25.50;99.90
20658;DHT22;10488;50.846;4.078;2022-07-06T14:37:04;25.00;99.90
20658;DHT22;10488;50.846;4.078;2022-07-06T14:39:30;24.50;99.90
20658;DHT22;10488;50.846;4.078;2022-07-06T14:41:56;24.20;99.90
20658;DHT22;10488;50.846;4.078;2022-07-06T14:44:21;24.30;99.90
20658;DHT22;10488;50.846;4.078;2022-07-06T14:46:47;24.40;99.90
20658;DHT22;10488;50.846;4.078;2022-07-06T14:49:13;24.70;99.90
20658;DHT22;10488;50.846;4.078;2022-07-06T14:51:39;24.10;99.90
20658;DHT22;10488;50.846;4.078;2022-07-06T14:54:04;24.00;99.90
20658;DHT22;10488;50.846;4.078;2022-07-06T14:56:30;24.00;99.90
20658;DHT22;10488;50.846;4.078;2022-07-06T14:58:56;24.70;99.90
20658;DHT22;10488;50.846;4.078;2022-07-06T15:01:22;24.80;99.90
20658;DHT22;10488;50.846;4.078;2022-07-06T15:03:47;25.00;99.90
20658;DHT22;10488;50.846;4.078;2022-07-06T15:06:13;24.40;99.90
20658;DHT22;10488;50.846;4.078;2022-07-06T15:08:39;24.80;99.90
20658;DHT22;10488;50.846;4.078;2022-07-06T15:11:04;24.80;99.90
20658;DHT22;10488;50.846;4.078;2022-07-06T15:13:30;24.50;99.90
20658;DHT22;10488;50.846;4.078;2022-07-06T15:15:56;24.50;99.90
20658;DHT22;10488;50.846;4.078;2022-07-06T15:18:21;24.60;99.90
20658;DHT22;10488;50.846;4.078;2022-07-06T15:20:47;24.90;99.90
20658;DHT22;10488;50.846;4.078;2022-07-06T15:23:13;24.40;99.90
20658;DHT22;10488;50.846;4.078;2022-07-06T15:25:38;24.40;99.90
20658;DHT22;10488;50.846;4.078;2022-07-06T15:28:04;23.80;99.90
20658;DHT22;10488;50.846;4.078;2022-07-06T15:30:30;23.70;99.90
20658;DHT22;10488;50.846;4.078;2022-07-06T15:33:00;23.90;99.90
20658;DHT22;10488;50.846;4.078;2022-07-06T15:35:26;23.40;99.90
20658;DHT22;10488;50.846;4.078;2022-07-06T15:37:52;23.50;99.90
20658;DHT22;10488;50.846;4.078;2022-07-06T15:40:41;23.60;99.90
20658;DHT22;10488;50.846;4.078;2022-07-06T15:43:10;23.90;99.90
20658;DHT22;10488;50.846;4.078;2022-07-06T15:45:36;23.90;99.90
20658;DHT22;10488;50.846;4.078;2022-07-06T15:48:03;24.10;99.90
20658;DHT22;10488;50.846;4.078;2022-07-06T15:50:29;24.60;99.90
20658;DHT22;10488;50.846;4.078;2022-07-06T15:52:55;25.30;99.90
20658;DHT22;10488;50.846;4.078;2022-07-06T15:55:20;25.50;99.90
20658;DHT22;10488;50.846;4.078;2022-07-06T15:57:47;25.20;99.90